Thursday, May 24, 2018, 5:37 AM EDT
Back to Local

KBHB, Bar Harbor, Hancock County-bar Harbor Airport

Location: Ellsworth, ME, United States Lat: 44.45
Local Time: 5:37 AM EDT ( 9:37 GMT) Lon: -68.367
Time Zone: US/Eastern Elev: 82 ft

Show me the last for .
Show Decoded

2018-05-24 04:56 METAR KBHB 240856Z AUTO 32003KT 10SM CLR 04/03 A3006 RMK AO2 SLP182 T00390033
                 53010 $ =
2018-05-24 03:56 METAR KBHB 240756Z AUTO 00000KT 10SM CLR 05/04 A3004 RMK AO2 SLP178 T00500044 $
                 =
2018-05-24 02:56 METAR KBHB 240656Z AUTO 00000KT 10SM CLR 06/05 A3003 RMK AO2 SLP174 T00610050 $
                 =
2018-05-24 01:56 METAR KBHB 240556Z AUTO 07004KT 10SM CLR 08/06 A3003 RMK AO2 SLP172 T00780056
                 10133 20078 50009 $ =
2018-05-24 00:56 METAR KBHB 240456Z AUTO 08005KT 10SM FEW012 09/07 A3003 RMK AO2 SLP172 T00890072
                 $ =
2018-05-23 23:56 METAR KBHB 240356Z AUTO 07004KT 10SM CLR 09/06 A3001 RMK AO2 SLP167 T00890061 $
                 =
2018-05-23 22:56 METAR KBHB 240256Z AUTO 04005KT 10SM CLR 10/06 A3000 RMK AO2 SLP162 T01000061
                 51013 $ =
2018-05-23 21:56 METAR KBHB 240156Z AUTO 01005KT 10SM CLR 11/06 A3000 RMK AO2 SLP162 T01060056 $
                 =
2018-05-23 20:56 METAR KBHB 240056Z AUTO 01004KT 10SM CLR 12/06 A2998 RMK AO2 SLP157 T01220056 $
                 =
2018-05-23 19:56 METAR KBHB 232356Z AUTO 32004KT 10SM FEW040 13/09 A2996 RMK AO2 SLP150 60019
                 T01330089 10228 20128 402280106 53028 $ =
2018-05-23 18:56 METAR KBHB 232256Z AUTO 07003KT 10SM FEW038 BKN050 13/11 A2993 RMK AO2 SLP139
                 T01330111 $ =
2018-05-23 17:56 METAR KBHB 232156Z AUTO 05005KT 10SM OVC037 14/12 A2990 RMK AO2 SLP129 T01440117
                 $ =
2018-05-23 17:18 METAR KBHB 232118Z AUTO 08006KT 10SM SCT014 BKN033 OVC048 14/12 A2989 RMK AO2 $
                 =
2018-05-23 17:09 METAR KBHB 232109Z AUTO 10008KT 10SM BKN014 BKN023 BKN047 14/12 A2988 RMK AO2 $
                 =
2018-05-23 16:56 METAR KBHB 232056Z AUTO 11008KT 10SM FEW016 BKN047 BKN090 14/12 A2988 RMK AO2
                 SLP122 60019 T01440117 53020 $ =
2018-05-23 15:56 METAR KBHB 231956Z AUTO 05008KT 10SM FEW019 BKN050 BKN065 16/13 A2984 RMK AO2
                 LTG DSNT E TSE32RAE45 SLP109 P0014 T01560128 $ =
2018-05-23 15:32 METAR KBHB 231932Z AUTO 02008KT 10SM -RA SCT018 BKN027 OVC060 16/14 A2983 RMK
                 AO2 LTG DSNT E AND SE TSE32 P0014 $ =
2018-05-23 14:56 METAR KBHB 231856Z AUTO 30007KT 6SM -TSRA BR FEW032 BKN050 OVC065 17/14 A2982
                 RMK AO2 LTG DSNT NE AND W TSB30RAB31 PRESRR SLP102 P0005 T01670144 $ =
2018-05-23 14:41 METAR KBHB 231841Z AUTO VRB03KT 10SM VCTS -RA BKN048 BKN065 OVC090 19/13 A2978
                 RMK AO2 LTG DSNT W-NE TSB30RAB31 PRESRR P0001 $ =
2018-05-23 13:56 METAR KBHB 231756Z AUTO VRB05KT 10SM BKN050 BKN065 23/11 A2977 RMK AO2 LTG DSNT
                 N SLP085 T02280111 10228 20122 58015 $ =
2018-05-23 12:56 METAR KBHB 231656Z AUTO VRB05KT 10SM FEW045 22/12 A2979 RMK AO2 SLP090 T02170117
                 $ =
2018-05-23 11:56 METAR KBHB 231556Z AUTO VRB06KT 10SM BKN037 20/12 A2980 RMK AO2 SLP096 T02000117
                 $ =
2018-05-23 10:56 METAR KBHB 231456Z AUTO VRB06KT 10SM OVC031 19/12 A2982 RMK AO2 SLP100 T01890122
                 58006 $ =
2018-05-23 10:19 METAR KBHB 231419Z AUTO 00000KT 10SM BKN027 17/11 A2982 RMK AO2 $ =
2018-05-23 09:56 METAR KBHB 231356Z AUTO 02004KT 10SM FEW023 17/11 A2982 RMK AO2 SLP103 T01670111
                 $ =
2018-05-23 08:56 METAR KBHB 231256Z AUTO VRB03KT 10SM FEW015 14/10 A2984 RMK AO2 SLP107 T01390100
                 $ =
2018-05-23 08:51 METAR KBHB 231251Z AUTO 33004KT 10SM FEW015 14/11 A2983 RMK AO2 $ =
2018-05-23 08:31 METAR KBHB 231231Z AUTO VRB04KT 10SM BKN015 13/10 A2984 RMK AO2 $ =
2018-05-23 07:56 METAR KBHB 231156Z AUTO 19005KT 10SM CLR 12/09 A2985 RMK AO2 SLP111 70001
                 T01220094 10122 20106 58003 $ =
2018-05-23 07:39 METAR KBHB 231139Z AUTO 19006KT 10SM FEW008 12/09 A2984 RMK AO2 $ =
2018-05-23 07:27 METAR KBHB 231127Z AUTO 20007KT 10SM BKN008 11/09 A2984 RMK AO2 $ =
2018-05-23 06:56 METAR KBHB 231056Z AUTO 20005KT 10SM FEW008 BKN070 11/09 A2985 RMK AO2 SLP113
                 T01060089 $ =
2018-05-23 05:56 METAR KBHB 230956Z AUTO 20008KT 10SM FEW009 OVC070 11/09 A2985 RMK AO2 SLP112
                 T01060089 $ =
2018-05-23 05:41 METAR KBHB 230941Z AUTO 20008KT 10SM FEW009 OVC070 11/09 A2985 RMK AO2 $ =

Support USWX by starting your Amazon purchase here.